This is the latest recevied weather packets stored in our database for station/object Riedlingn. If no packets are shown the sender has not sent any weather packets the latest 10 day(s).
| Time | Temp. | Humidity | Pressure | Rain* | Wind** | Luminosity | Snow |
|---|---|---|---|---|---|---|---|
| 1777896130 | 21.11° C | 42% | 1017.4 hPa | 0 mm | - | - | - |
| 1777894331 | 20.56° C | 41% | 1017.6 hPa | 0 mm | - | - | - |
| 1777892530 | 20.56° C | 37% | 1017.8 hPa | 0 mm | - | - | - |
| 1777890735 | 21.11° C | 38% | 1018.1 hPa | 0 mm | - | - | - |
| 1777888932 | 20.56° C | 41% | 1018.2 hPa | 0 mm | - | - | - |
| 1777887130 | 20° C | 43% | 1018.5 hPa | 0 mm | - | - | - |
| 1777885331 | 19.44° C | 43% | 1018.7 hPa | 0 mm | - | - | - |
| 1777883533 | 19.44° C | 48% | 1019 hPa | 0 mm | - | - | - |
| 1777881731 | 17.22° C | 59% | 1019.3 hPa | 0 mm | - | - | - |
| 1777879930 | 15° C | 65% | 1019.5 hPa | 0 mm | - | - | - |
| 1777878132 | 13.33° C | 74% | 1019.6 hPa | 0 mm | - | - | - |
| 1777876331 | 11.67° C | 80% | 1019.6 hPa | 0 mm | - | - | - |
| 1777874532 | 10.56° C | 82% | 1019.7 hPa | 0 mm | - | - | - |
| 1777872731 | 8.89° C | 87% | 1019.8 hPa | 0 mm | - | - | - |
| 1777870930 | 8.33° C | 89% | 1019.7 hPa | 0 mm | - | - | - |
| 1777869131 | 7.78° C | 88% | 1019.8 hPa | 0 mm | - | - | - |
| 1777867331 | 8.33° C | 86% | 1019.7 hPa | 0 mm | - | - | - |
| 1777865531 | 8.33° C | 84% | 1019.9 hPa | 0 mm | - | - | - |
| 1777863732 | 9.44° C | 82% | 1019.8 hPa | 0 mm | - | - | - |
| 1777861931 | 10° C | 82% | 1020 hPa | 0 mm | - | - | - |
| 1777860132 | 10° C | 82% | 1019.8 hPa | 0 mm | - | - | - |
| 1777858331 | 10° C | 80% | 1019.8 hPa | 0 mm | - | - | - |
| 1777856531 | 10.56° C | 78% | 1019.7 hPa | 0 mm | - | - | - |
| 1777854730 | 11.11° C | 78% | 1019.9 hPa | 0 mm | - | - | - |
| 1777852928 | 11.67° C | 75% | 1020.1 hPa | 0 mm | - | - | - |
* Rain since midnight (hover to see other rain measurements)
** Current wind speed in m/s (hover to see current wind gust speed)